METAR AND TAF INFORMATION
METAR FOR KSXU
ADDS - METARS form results

(0714 UTC 28 October 2021)
Data provider http://aviationweather.gov/metar/data/
 
METAR text: KSXU 280655Z AUTO 00000KT 10SM CLR 05/M09 A3011 RMK AO2 T00511089
Conditions at: KSXU (SANTA ROSA , NM, US) observed 0655 UTC 28 October 2021
Temperature: 5.1°C (41°F)
Dewpoint: -8.9°C (16°F) [RH = 36%]
Pressure (altimeter): 30.11 inches Hg (1019.7 mb)
Winds: calm
Visibility: 10 or more miles (16+ km)
Ceiling: at least 12,000 feet AGL
Clouds: sky clear below 12,000 feet AGL
Weather: automated observation with no human augmentation;
there may or may not be significant weather present at this time

METAR text: KSXU 280635Z AUTO 00000KT 10SM CLR 03/M09 A3011 RMK AO2 T00341091
Conditions at: KSXU (SANTA ROSA , NM, US) observed 0635 UTC 28 October 2021
Temperature: 3.4°C (38°F)
Dewpoint: -9.1°C (16°F) [RH = 39%]
Pressure (altimeter): 30.11 inches Hg (1019.7 mb)
Winds: calm
Visibility: 10 or more miles (16+ km)
Ceiling: at least 12,000 feet AGL
Clouds: sky clear below 12,000 feet AGL
Weather: automated observation with no human augmentation;
there may or may not be significant weather present at this time

METAR text: KSXU 280615Z AUTO 00000KT 10SM CLR 06/M09 A3011 RMK AO2 T00621090
Conditions at: KSXU (SANTA ROSA , NM, US) observed 0615 UTC 28 October 2021
Temperature: 6.2°C (43°F)
Dewpoint: -9.0°C (16°F) [RH = 33%]
Pressure (altimeter): 30.11 inches Hg (1019.7 mb)
Winds: calm
Visibility: 10 or more miles (16+ km)
Ceiling: at least 12,000 feet AGL
Clouds: sky clear below 12,000 feet AGL
Weather: automated observation with no human augmentation;
there may or may not be significant weather present at this time

 AIRPORT MAP

 RUNWAY INFORMATION

 AIRPORT FREQUENCIES

 AIRPORT NEAR NAVIGATION AIDS

-